Time;durP1;ratioP1;P1;durP2;ratioP2;P2;SDS_P1;SDS_P2;PMS_P1;PMS_P2;Temp;Humidity;BMP_temperature;BMP_pressure;BME280_temperature;BME280_humidity;BME280_pressure;Samples;Min_cycle;Max_cycle;Signal;HPM_P1;HPM_P2
2022/04/26 03:36:47;;;;;;;0.98;0.82;;;19.90;46.30;;;;;;6172070;28;20027;-69
2022/04/26 03:39:48;;;;;;;1.00;0.90;;;19.90;46.30;;;;;;6172162;28;20053;-69
2022/04/26 03:42:48;;;;;;;1.13;0.90;;;19.90;46.40;;;;;;6172366;28;20386;-69
2022/04/26 03:45:49;;;;;;;1.17;0.85;;;19.90;46.30;;;;;;6128969;28;20036;-68
2022/04/26 03:48:50;;;;;;;1.80;1.10;;;19.80;46.30;;;;;;6124653;29;20019;-69
2022/04/26 03:51:54;;;;;;;1.15;0.77;;;19.90;46.40;;;;;;6123896;29;20036;-69
2022/04/26 03:54:54;;;;;;;0.95;0.77;;;19.90;46.40;;;;;;6123783;29;20042;-68
2022/04/26 03:57:57;;;;;;;1.38;1.00;;;19.90;46.40;;;;;;6124209;29;20027;-69
2022/04/26 04:00:57;;;;;;;0.95;0.75;;;19.90;46.40;;;;;;6124317;29;20030;-69
2022/04/26 04:03:58;;;;;;;0.90;0.82;;;19.90;46.40;;;;;;6123679;29;20664;-69
2022/04/26 04:07:00;;;;;;;0.75;0.70;;;19.80;46.30;;;;;;6123245;29;20099;-69
2022/04/26 04:10:00;;;;;;;3.13;0.90;;;19.90;46.40;;;;;;6124375;29;20031;-69
2022/04/26 04:13:01;;;;;;;1.42;0.90;;;19.90;46.40;;;;;;6123711;29;20110;-69
2022/04/26 04:16:01;;;;;;;1.02;0.90;;;19.90;46.40;;;;;;6123031;29;20035;-69
2022/04/26 04:22:21;;;;;;;1.20;0.80;;;19.90;46.40;;;;;;6134886;28;20026;-69
2022/04/26 04:25:22;;;;;;;1.10;0.70;;;19.90;46.30;;;;;;6147088;28;20390;-69
2022/04/26 04:28:23;;;;;;;1.08;0.95;;;19.90;46.30;;;;;;6147224;28;20082;-69
2022/04/26 04:31:23;;;;;;;1.08;0.95;;;19.90;46.30;;;;;;6146960;28;20114;-69
2022/04/26 04:34:23;;;;;;;1.20;0.90;;;19.90;46.30;;;;;;6146570;29;20047;-69
2022/04/26 04:37:24;;;;;;;1.35;0.90;;;19.90;46.30;;;;;;6146370;29;20461;-69
2022/04/26 04:40:24;;;;;;;1.10;0.98;;;19.90;46.40;;;;;;6147177;29;20027;-68
2022/04/26 04:43:25;;;;;;;1.23;1.08;;;19.90;46.30;;;;;;6144786;29;20114;-69
2022/04/26 04:46:26;;;;;;;1.00;0.90;;;19.90;46.30;;;;;;6123001;29;20042;-69
2022/04/26 04:49:26;;;;;;;1.10;1.00;;;19.90;46.30;;;;;;6121489;29;20483;-69
2022/04/26 04:52:27;;;;;;;1.77;0.90;;;19.90;46.30;;;;;;6136841;28;20039;-69
2022/04/26 04:55:27;;;;;;;1.15;0.90;;;19.90;46.30;;;;;;6146439;28;20031;-69
2022/04/26 04:58:28;;;;;;;0.88;0.80;;;19.90;46.30;;;;;;6146702;28;20027;-69
2022/04/26 05:01:28;;;;;;;1.20;1.02;;;19.90;46.30;;;;;;6140611;28;20115;-68
2022/04/26 05:04:29;;;;;;;0.98;0.80;;;19.90;46.30;;;;;;6123724;29;20024;-69
2022/04/26 05:07:29;;;;;;;0.70;0.70;;;19.90;46.30;;;;;;6122339;29;20032;-68
2022/04/26 05:10:33;;;;;;;1.42;1.00;;;19.90;46.30;;;;;;6123306;29;20118;-69
2022/04/26 05:13:33;;;;;;;0.68;0.68;;;19.90;46.30;;;;;;6136663;28;20046;-69
2022/04/26 05:16:34;;;;;;;0.90;0.80;;;19.90;46.30;;;;;;6122922;29;20538;-68
2022/04/26 05:19:34;;;;;;;1.48;0.90;;;19.90;46.30;;;;;;6122833;29;20035;-69
2022/04/26 05:24:53;;;;;;;1.00;0.85;;;19.90;46.30;;;;;;6123155;29;20052;-69
2022/04/26 05:25:55;;;;;;;1.45;1.00;;;19.90;46.30;;;;;;6121752;29;20542;-69
2022/04/26 05:28:56;;;;;;;1.05;0.80;;;19.90;46.30;;;;;;6135710;28;20054;-69
2022/04/26 05:31:56;;;;;;;1.00;0.75;;;19.90;46.30;;;;;;6145480;28;20031;-69
2022/04/26 05:34:58;;;;;;;1.33;0.90;;;19.90;46.30;;;;;;6146030;28;20110;-69
2022/04/26 05:37:59;;;;;;;1.63;1.10;;;19.90;46.30;;;;;;6146533;28;20043;-69
2022/04/26 05:41:00;;;;;;;1.42;1.08;;;19.90;46.30;;;;;;6146075;28;20027;-69
2022/04/26 05:44:00;;;;;;;1.30;0.80;;;19.90;46.30;;;;;;6148036;28;20031;-69
2022/04/26 05:47:02;;;;;;;1.15;0.70;;;19.90;46.30;;;;;;6142692;28;20042;-69
2022/04/26 05:50:02;;;;;;;1.05;0.90;;;19.90;46.30;;;;;;6134531;28;20063;-69
2022/04/26 05:53:03;;;;;;;1.35;1.05;;;19.90;46.30;;;;;;6164893;28;20043;-68
2022/04/26 05:56:08;;;;;;;0.80;0.70;;;19.90;46.30;;;;;;6173592;28;20263;-69
2022/04/26 05:59:09;;;;;;;1.35;1.08;;;19.90;46.30;;;;;;6169242;28;20470;-69
2022/04/26 06:02:09;;;;;;;1.00;0.90;;;19.90;46.30;;;;;;6146686;28;20047;-69
2022/04/26 06:05:10;;;;;;;1.17;0.70;;;19.90;46.30;;;;;;6162367;28;20486;-69
2022/04/26 06:08:10;;;;;;;1.63;0.95;;;19.90;46.30;;;;;;6168885;28;20300;-69
2022/04/26 06:11:11;;;;;;;1.05;0.90;;;19.90;46.30;;;;;;6153053;28;20371;-69
2022/04/26 06:14:12;;;;;;;1.52;1.05;;;19.90;46.30;;;;;;6150803;28;20043;-68
2022/04/26 06:17:12;;;;;;;4.13;1.20;;;19.90;46.30;;;;;;6151145;28;20497;-68
2022/04/26 06:20:13;;;;;;;1.42;0.90;;;19.90;46.40;;;;;;6150877;28;20062;-69
2022/04/26 06:23:14;;;;;;;1.55;0.80;;;19.90;46.40;;;;;;6151146;28;20382;-69
2022/04/26 06:26:14;;;;;;;1.30;1.10;;;19.90;46.30;;;;;;6150226;28;20042;-69
2022/04/26 06:29:15;;;;;;;1.95;0.90;;;19.90;46.40;;;;;;6152927;28;20039;-69
2022/04/26 06:32:15;;;;;;;2.60;0.95;;;19.90;46.40;;;;;;6174521;28;20050;-69
2022/04/26 06:35:16;;;;;;;1.20;0.90;;;19.90;46.40;;;;;;6174299;28;20027;-69
2022/04/26 06:38:16;;;;;;;1.33;0.90;;;19.90;46.30;;;;;;6159226;28;20225;-70
2022/04/26 06:41:17;;;;;;;3.25;1.02;;;19.90;46.40;;;;;;6150884;28;20088;-70
2022/04/26 06:44:18;;;;;;;1.67;1.13;;;19.90;46.40;;;;;;6141271;28;20446;-70
2022/04/26 06:47:18;;;;;;;2.15;1.00;;;19.90;46.40;;;;;;6126509;29;20558;-69
2022/04/26 06:50:19;;;;;;;1.73;1.00;;;19.90;46.40;;;;;;6127637;28;20031;-69
2022/04/26 06:53:19;;;;;;;1.10;0.90;;;19.90;46.40;;;;;;6149396;28;20031;-70
2022/04/26 06:56:20;;;;;;;1.20;0.80;;;19.90;46.40;;;;;;6149260;28;20574;-70
2022/04/26 06:59:20;;;;;;;0.90;0.80;;;19.90;46.40;;;;;;6150356;28;20034;-70
2022/04/26 07:02:22;;;;;;;1.05;0.90;;;19.90;46.40;;;;;;6149941;28;20098;-70
2022/04/26 07:05:22;;;;;;;1.30;0.85;;;19.90;46.40;;;;;;6150049;28;20122;-70
2022/04/26 07:08:23;;;;;;;1.40;0.90;;;19.90;46.40;;;;;;6150711;28;20402;-70
2022/04/26 07:11:23;;;;;;;1.10;0.90;;;19.90;46.40;;;;;;6149785;28;20033;-70
2022/04/26 07:14:24;;;;;;;3.80;1.20;;;19.90;46.40;;;;;;6149920;28;20046;-70
2022/04/26 07:17:25;;;;;;;1.30;0.90;;;19.90;46.50;;;;;;6149535;28;20059;-70
2022/04/26 07:20:28;;;;;;;1.08;0.90;;;19.90;46.40;;;;;;6149827;28;20099;-70
2022/04/26 07:23:28;;;;;;;1.48;1.02;;;19.90;46.40;;;;;;6149739;28;20034;-70
2022/04/26 07:26:29;;;;;;;1.80;0.95;;;19.90;46.50;;;;;;6149669;28;20019;-70
2022/04/26 07:29:29;;;;;;;1.20;0.82;;;19.90;46.40;;;;;;6148994;28;20529;-69
2022/04/26 07:35:49;;;;;;;2.42;1.00;;;19.90;46.50;;;;;;6149190;29;20482;-70
2022/04/26 07:38:50;;;;;;;2.78;0.70;;;19.90;46.60;;;;;;6148937;29;20031;-69
2022/04/26 07:41:50;;;;;;;1.10;0.70;;;19.90;46.60;;;;;;6147697;29;20499;-70
2022/04/26 07:44:51;;;;;;;2.13;0.82;;;19.90;46.50;;;;;;6135752;28;20028;-70
2022/04/26 07:47:52;;;;;;;3.67;1.08;;;19.90;46.40;;;;;;6124893;29;20066;-70
2022/04/26 07:50:53;;;;;;;1.35;0.88;;;19.90;46.40;;;;;;6132338;28;20431;-70
2022/04/26 07:53:54;;;;;;;1.10;0.90;;;19.90;46.40;;;;;;6148695;28;20062;-70
2022/04/26 07:56:55;;;;;;;2.75;0.93;;;19.90;46.50;;;;;;6148676;28;20486;-70
2022/04/26 07:59:56;;;;;;;1.10;0.70;;;19.90;46.40;;;;;;6148756;28;20023;-70
2022/04/26 08:02:56;;;;;;;1.25;1.00;;;19.90;46.40;;;;;;6163447;28;20106;-70
2022/04/26 08:05:57;;;;;;;1.02;0.85;;;19.90;46.50;;;;;;6148295;28;20035;-70
2022/04/26 08:08:58;;;;;;;1.40;0.68;;;19.90;46.50;;;;;;6147725;28;20397;-70
2022/04/26 08:11:58;;;;;;;0.88;0.75;;;19.90;46.50;;;;;;6148474;28;20451;-70
2022/04/26 08:14:59;;;;;;;1.33;0.80;;;19.90;46.60;;;;;;6147838;29;20031;-70
2022/04/26 08:18:00;;;;;;;1.30;0.82;;;19.90;46.60;;;;;;6146280;28;20399;-70
2022/04/26 08:21:01;;;;;;;1.00;0.90;;;19.90;46.60;;;;;;6147879;28;20042;-70
2022/04/26 08:27:23;;;;;;;0.73;0.70;;;19.90;46.50;;;;;;6148150;28;20031;-70
2022/04/26 08:40:53;;;;;;;1.10;0.68;;;19.90;46.60;;;;;;6367803;27;20140;-69
2022/04/26 08:43:53;;;;;;;3.03;1.05;;;19.90;46.70;;;;;;6349412;28;20030;-69
2022/04/26 08:53:35;;;;;;;2.85;1.38;;;19.90;44.30;;;;;;6366554;28;20023;-70
2022/04/26 08:56:36;;;;;;;1.63;1.30;;;19.90;43.50;;;;;;6348388;28;20504;-70
2022/04/26 08:59:48;;;;;;;3.88;1.33;;;19.90;43.90;;;;;;6348658;28;20024;-70
2022/04/26 09:03:04;;;;;;;3.38;1.30;;;19.90;44.30;;;;;;6366092;28;20534;-70
2022/04/26 09:06:08;;;;;;;;;;;19.90;44.50;;;;;;6347973;28;20397;-70
2022/04/26 09:09:15;;;;;;;5.35;1.20;;;19.90;45.30;;;;;;6346954;28;20371;-70
2022/04/26 09:12:17;;;;;;;2.50;1.27;;;19.90;44.70;;;;;;6366008;28;20019;-70
2022/04/26 09:15:17;;;;;;;2.33;1.20;;;19.90;44.90;;;;;;6365935;28;20461;-70
2022/04/26 09:18:21;;;;;;;2.47;1.20;;;19.90;45.00;;;;;;6365858;27;20041;-70
2022/04/26 09:21:27;;;;;;;3.97;1.83;;;19.90;45.10;;;;;;6344609;28;20035;-70
2022/04/26 09:24:27;;;;;;;1.65;1.20;;;19.90;45.20;;;;;;6338881;28;20023;-70
2022/04/26 09:27:29;;;;;;;1.20;1.10;;;19.90;45.30;;;;;;6339648;28;20024;-72
2022/04/26 09:30:30;;;;;;;3.78;1.33;;;19.90;45.40;;;;;;6353004;28;20019;-70
2022/04/26 09:33:39;;;;;;;2.90;1.27;;;19.90;45.50;;;;;;6347301;28;20024;-71
2022/04/26 09:36:45;;;;;;;1.33;1.10;;;19.90;45.50;;;;;;6346932;28;20030;-71
2022/04/26 09:40:06;;;;;;;1.40;0.85;;;19.90;45.50;;;;;;6341763;27;20120;-71
2022/04/26 09:43:16;;;;;;;1.60;0.98;;;19.90;45.60;;;;;;6348263;28;20027;-70
2022/04/26 09:46:17;;;;;;;1.25;1.00;;;19.90;45.70;;;;;;6322766;28;20031;-70
2022/04/26 09:49:21;;;;;;;3.45;1.00;;;19.90;45.70;;;;;;6341081;27;20442;-70
2022/04/26 09:52:22;;;;;;;4.10;1.00;;;19.90;45.80;;;;;;6348515;28;20489;-70
2022/04/26 09:55:23;;;;;;;1.88;1.10;;;19.90;45.80;;;;;;6347682;28;20023;-72
2022/04/26 09:58:26;;;;;;;1.40;1.00;;;19.90;45.80;;;;;;6329463;28;20027;-70
2022/04/26 10:01:34;;;;;;;1.77;1.05;;;19.90;45.90;;;;;;6329455;28;20058;-70
2022/04/26 10:04:37;;;;;;;1.88;1.10;;;19.90;46.00;;;;;;6347649;28;20051;-70
2022/04/26 10:07:46;;;;;;;1.27;0.90;;;19.90;45.90;;;;;;6347329;28;20027;-70
2022/04/26 10:10:47;;;;;;;2.20;0.95;;;19.90;46.00;;;;;;6329624;28;20024;-70
2022/04/26 10:13:49;;;;;;;1.45;0.90;;;19.90;46.10;;;;;;6347350;28;20012;-70
2022/04/26 10:16:51;;;;;;;2.45;1.10;;;19.90;46.80;;;;;;6347631;28;20493;-70
2022/04/26 10:19:52;;;;;;;1.75;1.10;;;19.90;46.10;;;;;;6328976;28;20033;-70
2022/04/26 10:22:59;;;;;;;3.00;0.95;;;19.90;46.20;;;;;;6321016;28;20028;-70
2022/04/26 10:26:24;;;;;;;1.05;0.85;;;19.90;46.20;;;;;;6320639;28;20023;-70
2022/04/26 10:29:25;;;;;;;2.20;1.10;;;19.90;46.30;;;;;;6315508;28;20393;-70
2022/04/26 10:32:40;;;;;;;1.88;1.02;;;19.90;46.20;;;;;;6329154;28;20103;-70
2022/04/26 10:35:41;;;;;;;1.77;0.95;;;19.90;46.30;;;;;;6329079;28;20383;-70
2022/04/26 10:39:07;;;;;;;1.70;1.05;;;19.90;46.30;;;;;;6346334;28;20055;-70
2022/04/26 10:42:14;;;;;;;1.38;0.98;;;19.90;46.30;;;;;;6321566;28;20024;-70
2022/04/26 10:45:15;;;;;;;1.42;0.80;;;19.90;46.30;;;;;;6320932;28;20027;-70
2022/04/26 10:48:27;;;;;;;1.27;0.88;;;19.90;46.30;;;;;;6346711;28;20027;-70
2022/04/26 10:51:38;;;;;;;1.85;0.90;;;19.90;46.40;;;;;;6327627;28;20020;-71
2022/04/26 10:55:07;;;;;;;1.02;0.77;;;19.90;46.30;;;;;;6346915;27;20012;-70
2022/04/26 10:58:08;;;;;;;6.07;1.13;;;19.90;46.30;;;;;;6345425;28;20026;-71
2022/04/26 11:01:10;;;;;;;10.20;1.80;;;20.00;47.20;;;;;;6346170;28;20032;-70
2022/04/26 11:04:16;;;;;;;7.80;1.65;;;19.80;47.10;;;;;;6327399;28;20469;-70
2022/04/26 11:07:18;;;;;;;14.93;1.90;;;19.70;47.90;;;;;;6324313;28;20036;-70
2022/04/26 11:10:22;;;;;;;14.32;1.65;;;19.80;47.80;;;;;;6345170;28;20068;-70
2022/04/26 11:13:33;;;;;;;7.00;1.20;;;19.90;47.70;;;;;;6323982;27;20114;-70
2022/04/26 11:16:33;;;;;;;4.72;1.40;;;20.00;47.20;;;;;;6346494;27;20031;-70
2022/04/26 11:19:36;;;;;;;11.50;1.70;;;20.00;47.20;;;;;;6340028;28;20020;-70
2022/04/26 11:22:48;;;;;;;3.17;1.23;;;20.00;47.10;;;;;;6318109;28;20034;-70
2022/04/26 11:29:24;;;;;;;8.15;2.00;;;20.00;46.90;;;;;;6324315;28;20024;-70
2022/04/26 11:32:42;;;;;;;5.40;1.33;;;20.00;46.80;;;;;;6345012;28;20367;-70
2022/04/26 11:35:43;;;;;;;4.13;1.02;;;20.00;46.80;;;;;;6344716;28;20057;-70
2022/04/26 11:38:56;;;;;;;3.38;1.38;;;20.00;46.70;;;;;;6342910;28;20082;-70
2022/04/26 11:41:58;;;;;;;4.72;1.10;;;20.00;46.90;;;;;;6301014;28;20367;-70
2022/04/26 11:45:04;;;;;;;2.40;1.23;;;20.00;46.80;;;;;;6334696;28;20385;-70
2022/04/26 11:48:09;;;;;;;2.08;1.20;;;20.00;47.10;;;;;;6344442;28;20530;-70
2022/04/26 11:51:13;;;;;;;2.75;0.82;;;20.00;47.10;;;;;;6327785;28;20027;-72
2022/04/26 11:54:39;;;;;;;3.92;1.10;;;20.00;47.00;;;;;;6326116;28;20489;-70
2022/04/26 11:57:40;;;;;;;2.75;1.00;;;20.00;47.20;;;;;;6344008;28;20027;-70
2022/04/26 12:01:11;;;;;;;4.88;1.00;;;20.00;47.20;;;;;;6319155;28;20019;-71
2022/04/26 12:04:12;;;;;;;3.83;1.23;;;20.00;47.10;;;;;;6324768;28;20430;-71
2022/04/26 12:07:13;;;;;;;3.83;1.10;;;20.00;47.20;;;;;;6325962;28;20034;-70
2022/04/26 12:10:30;;;;;;;2.40;1.02;;;20.00;47.30;;;;;;6325455;28;20027;-70
2022/04/26 12:13:32;;;;;;;3.50;1.40;;;19.90;47.20;;;;;;6348391;27;20655;-70
2022/04/26 12:16:40;;;;;;;2.40;1.33;;;19.90;47.20;;;;;;6330764;28;20081;-70
2022/04/26 12:19:41;;;;;;;1.95;1.08;;;19.90;47.30;;;;;;6318211;28;20024;-70
2022/04/26 12:22:42;;;;;;;2.95;0.93;;;19.90;47.30;;;;;;6325454;28;20027;-70
2022/04/26 12:25:52;;;;;;;2.42;0.85;;;19.90;47.40;;;;;;6338579;28;20035;-70
2022/04/26 12:28:52;;;;;;;1.85;1.05;;;19.90;47.30;;;;;;6344699;28;20031;-70
2022/04/26 12:31:53;;;;;;;2.40;0.85;;;19.90;47.40;;;;;;6319388;28;20025;-70
2022/04/26 12:34:58;;;;;;;1.75;0.88;;;19.90;47.30;;;;;;6333263;28;20027;-70
2022/04/26 12:38:09;;;;;;;2.13;0.90;;;19.90;47.30;;;;;;6337106;28;20076;-70
2022/04/26 12:41:10;;;;;;;1.42;0.90;;;19.90;47.50;;;;;;6325887;28;20034;-70
2022/04/26 12:44:11;;;;;;;1.80;1.13;;;19.90;47.50;;;;;;6325900;28;20225;-70
2022/04/26 12:50:32;;;;;;;2.42;1.08;;;19.90;47.50;;;;;;6344380;28;20036;-70
2022/04/26 12:53:34;;;;;;;1.98;0.70;;;19.90;47.60;;;;;;6331907;28;20073;-71
2022/04/26 12:56:37;;;;;;;1.85;0.82;;;19.90;47.50;;;;;;6327658;28;20400;-70
2022/04/26 12:59:39;;;;;;;3.03;0.73;;;19.90;47.60;;;;;;6333613;28;20028;-70
2022/04/26 13:02:40;;;;;;;1.23;0.73;;;19.90;47.30;;;;;;6343760;28;20016;-70
2022/04/26 13:05:50;;;;;;;1.88;0.90;;;19.90;47.70;;;;;;6325079;28;20020;-70
2022/04/26 13:08:51;;;;;;;1.17;0.80;;;19.90;47.60;;;;;;6343262;28;20019;-70
2022/04/26 13:11:53;;;;;;;2.53;0.80;;;19.90;47.30;;;;;;6344218;28;20069;-70
2022/04/26 13:14:55;;;;;;;2.08;0.90;;;19.90;47.50;;;;;;6342309;27;20484;-70
2022/04/26 13:17:56;;;;;;;3.95;1.00;;;19.90;47.20;;;;;;6374381;27;20068;-71
2022/04/26 13:20:57;;;;;;;1.35;0.70;;;19.90;47.20;;;;;;6365682;27;20019;-70
2022/04/26 13:23:59;;;;;;;0.93;0.60;;;19.90;47.20;;;;;;6342123;28;20027;-70
2022/04/26 13:27:02;;;;;;;1.63;0.80;;;19.90;47.20;;;;;;6329084;28;20128;-69
2022/04/26 13:30:04;;;;;;;1.60;0.80;;;19.90;47.20;;;;;;6338431;28;20031;-70
2022/04/26 13:33:05;;;;;;;0.70;0.60;;;19.90;47.30;;;;;;6322274;28;20031;-70
2022/04/26 13:36:07;;;;;;;0.95;0.80;;;19.90;47.10;;;;;;6326217;28;20102;-70
2022/04/26 13:39:08;;;;;;;1.55;0.90;;;19.90;47.10;;;;;;6320533;28;20078;-70
2022/04/26 13:42:10;;;;;;;0.80;0.63;;;19.90;47.20;;;;;;6321505;28;20060;-71
2022/04/26 13:45:12;;;;;;;2.65;0.77;;;19.90;47.20;;;;;;6321480;28;20063;-70
2022/04/26 13:48:14;;;;;;;0.50;0.50;;;19.90;47.10;;;;;;6322204;28;20363;-70
2022/04/26 13:51:14;;;;;;;1.67;0.88;;;19.90;47.10;;;;;;6321993;28;20027;-71
2022/04/26 13:54:15;;;;;;;1.20;0.85;;;19.90;47.20;;;;;;6321766;28;20047;-70
2022/04/26 13:57:16;;;;;;;0.90;0.60;;;19.90;47.20;;;;;;6321969;28;20502;-71
2022/04/26 14:00:17;;;;;;;1.70;0.70;;;19.90;47.10;;;;;;6321457;28;20028;-70
2022/04/26 14:03:18;;;;;;;0.90;0.68;;;19.90;47.10;;;;;;6321665;28;20027;-70
2022/04/26 14:06:21;;;;;;;1.60;0.80;;;19.90;47.20;;;;;;6322014;28;20023;-70
2022/04/26 14:09:23;;;;;;;1.13;0.50;;;19.90;47.10;;;;;;6319685;28;20016;-69
2022/04/26 14:12:24;;;;;;;0.55;0.55;;;19.90;47.10;;;;;;6321501;28;20435;-69
2022/04/26 14:22:03;;;;;;;1.55;0.70;;;19.90;47.20;;;;;;6323103;28;20032;-70
2022/04/26 14:25:08;;;;;;;4.15;1.00;;;19.90;47.20;;;;;;6320978;28;20062;-70
2022/04/26 14:28:09;;;;;;;2.50;1.10;;;19.90;47.20;;;;;;6320642;28;20020;-70
2022/04/26 14:31:09;;;;;;;2.20;1.10;;;19.90;47.20;;;;;;6320761;28;20024;-72
2022/04/26 14:34:11;;;;;;;2.42;1.20;;;19.90;47.20;;;;;;6319691;28;20081;-72
2022/04/26 14:37:12;;;;;;;2.95;1.35;;;19.90;47.20;;;;;;6320300;28;20055;-70
2022/04/26 14:40:13;;;;;;;3.60;1.67;;;19.90;47.30;;;;;;6320577;28;20056;-70
2022/04/26 14:43:14;;;;;;;4.50;1.80;;;19.90;47.30;;;;;;6321084;28;20030;-70
2022/04/26 14:46:15;;;;;;;3.75;1.60;;;19.90;47.20;;;;;;6320399;28;20097;-69
2022/04/26 14:49:16;;;;;;;5.57;2.30;;;19.90;47.20;;;;;;6321871;28;20028;-70
2022/04/26 14:52:21;;;;;;;5.90;2.75;;;19.90;47.20;;;;;;6320520;28;20031;-69
2022/04/26 14:55:22;;;;;;;7.85;2.75;;;19.90;47.10;;;;;;6320442;28;20024;-70
2022/04/26 14:58:22;;;;;;;13.40;3.60;;;19.90;47.10;;;;;;6321361;28;20028;-70
2022/04/26 15:01:28;;;;;;;8.60;3.40;;;19.90;47.00;;;;;;6320276;28;20031;-70
2022/04/26 15:04:28;;;;;;;7.93;3.00;;;19.90;47.00;;;;;;6319827;28;20813;-70
2022/04/26 15:09:42;;;;;;;9.27;3.13;;;19.90;47.10;;;;;;6321949;28;20028;-69
2022/04/26 15:10:50;;;;;;;8.27;2.90;;;19.90;47.80;;;;;;6321252;28;20028;-70
2022/04/26 15:17:10;;;;;;;10.18;3.50;;;19.90;47.10;;;;;;6321292;28;20521;-71
2022/04/26 15:20:12;;;;;;;8.43;3.45;;;19.90;47.10;;;;;;6320241;28;20098;-71
2022/04/26 15:23:12;;;;;;;9.63;3.15;;;19.90;47.10;;;;;;6320353;28;20027;-72
2022/04/26 15:26:13;;;;;;;8.45;3.40;;;19.90;47.20;;;;;;6320005;28;20320;-72
2022/04/26 15:29:15;;;;;;;8.85;3.65;;;19.90;47.20;;;;;;6319490;28;20113;-70
2022/04/26 15:32:16;;;;;;;11.05;4.10;;;19.90;47.20;;;;;;6320762;28;20394;-70
2022/04/26 15:35:17;;;;;;;13.48;4.93;;;19.90;47.20;;;;;;6320860;28;20028;-71
2022/04/26 15:38:18;;;;;;;11.80;4.70;;;19.90;47.10;;;;;;6323148;28;20040;-70
2022/04/26 15:41:18;;;;;;;15.07;5.28;;;19.90;47.00;;;;;;6327054;28;20024;-71
2022/04/26 15:44:19;;;;;;;12.23;5.20;;;19.90;46.90;;;;;;6326987;28;20019;-71
2022/04/26 15:47:20;;;;;;;14.07;5.68;;;19.90;46.90;;;;;;6344135;28;20038;-70
2022/04/26 15:50:21;;;;;;;16.88;6.18;;;19.90;46.90;;;;;;6316249;28;20027;-69
2022/04/26 15:53:22;;;;;;;13.82;5.00;;;19.90;46.80;;;;;;6344647;28;20031;-68
2022/04/26 15:56:23;;;;;;;13.98;5.32;;;19.90;47.00;;;;;;6345693;28;20019;-70
2022/04/26 15:59:23;;;;;;;15.43;5.53;;;19.90;46.80;;;;;;6326318;28;20130;-71
2022/04/26 16:02:24;;;;;;;12.93;5.28;;;19.90;46.80;;;;;;6342051;28;20036;-70
2022/04/26 16:05:25;;;;;;;12.90;4.63;;;19.90;46.90;;;;;;6326120;28;20028;-71
2022/04/26 16:08:25;;;;;;;11.18;5.40;;;19.90;46.80;;;;;;6340904;28;20028;-71
2022/04/26 16:21:40;;;;;;;12.82;5.10;;;19.90;46.30;;;;;;6240746;28;20053;-70
2022/04/26 16:24:41;;;;;;;11.15;4.53;;;19.90;46.10;;;;;;6323672;28;20054;-71
2022/04/26 16:27:42;;;;;;;10.25;4.35;;;19.90;46.00;;;;;;6324595;28;20110;-70
2022/04/26 16:30:43;;;;;;;9.10;4.03;;;19.90;45.90;;;;;;6341236;28;20027;-73
2022/04/26 16:33:44;;;;;;;9.45;3.80;;;19.90;45.70;;;;;;6322674;28;20077;-73
2022/04/26 16:36:45;;;;;;;9.95;3.40;;;19.90;45.70;;;;;;6323057;28;20043;-73
2022/04/26 16:39:47;;;;;;;10.13;3.42;;;19.90;45.60;;;;;;6324324;28;20039;-72
2022/04/26 16:42:48;;;;;;;8.07;3.75;;;19.80;45.50;;;;;;6341665;28;20023;-73
2022/04/26 16:45:49;;;;;;;10.13;3.45;;;19.90;45.50;;;;;;6341594;28;20072;-72
2022/04/26 16:48:49;;;;;;;5.97;3.15;;;19.90;45.50;;;;;;6341803;28;20023;-70
2022/04/26 16:51:50;;;;;;;6.43;2.97;;;19.90;45.50;;;;;;6346132;28;20375;-71
2022/04/26 16:54:51;;;;;;;7.68;3.22;;;19.90;45.70;;;;;;6327297;28;20030;-71
2022/04/26 16:57:51;;;;;;;7.05;3.63;;;19.90;45.70;;;;;;6328129;28;20035;-71
2022/04/26 17:00:52;;;;;;;6.20;3.30;;;19.90;45.70;;;;;;6328199;28;20024;-71
2022/04/26 17:03:54;;;;;;;8.30;3.40;;;19.90;45.80;;;;;;6347463;28;20023;-71
2022/04/26 17:06:55;;;;;;;7.18;3.30;;;19.90;45.90;;;;;;6346735;28;20019;-72
2022/04/26 17:09:56;;;;;;;7.80;3.03;;;19.90;46.10;;;;;;6346540;28;20038;-70
2022/04/26 17:12:57;;;;;;;6.72;3.30;;;19.90;46.10;;;;;;6346652;28;20024;-70
2022/04/26 17:15:58;;;;;;;8.15;3.78;;;19.90;46.20;;;;;;6371489;27;20030;-70
2022/04/26 17:18:59;;;;;;;10.40;3.70;;;19.90;46.20;;;;;;6362900;27;20019;-71
2022/04/26 17:22:01;;;;;;;6.70;3.42;;;19.90;46.30;;;;;;6346053;28;20043;-71
2022/04/26 17:25:14;;;;;;;9.38;3.47;;;19.90;46.30;;;;;;6318870;28;20034;-71
2022/04/26 17:28:15;;;;;;;9.05;3.75;;;19.90;46.40;;;;;;6320373;28;20020;-71
2022/04/26 17:31:17;;;;;;;11.27;4.50;;;19.90;46.40;;;;;;6327408;28;20413;-71
2022/04/26 17:34:21;;;;;;;11.70;4.57;;;19.90;46.40;;;;;;6345467;28;20019;-71
2022/04/26 17:37:22;;;;;;;11.57;5.10;;;19.90;46.50;;;;;;6345709;28;20462;-70
2022/04/26 17:40:23;;;;;;;16.08;6.22;;;19.80;46.50;;;;;;6326954;28;20059;-70
2022/04/26 17:43:24;;;;;;;12.40;5.38;;;19.90;46.60;;;;;;6345285;28;20738;-71
2022/04/26 17:46:24;;;;;;;15.77;5.90;;;19.90;46.60;;;;;;6345338;28;20076;-71
2022/04/26 17:49:25;;;;;;;17.05;6.22;;;19.90;46.80;;;;;;6345151;28;20363;-70
2022/04/26 17:52:30;;;;;;;16.48;6.75;;;19.90;46.70;;;;;;6326862;28;20027;-70
2022/04/26 17:58:49;;;;;;;18.70;7.25;;;19.90;46.80;;;;;;6345300;28;20039;-71
2022/04/26 18:01:50;;;;;;;22.17;7.95;;;19.90;46.80;;;;;;6345331;28;20075;-70
2022/04/26 18:04:51;;;;;;;19.83;7.95;;;19.90;46.80;;;;;;6345518;28;20065;-70
2022/04/26 18:07:52;;;;;;;21.73;8.43;;;19.90;46.80;;;;;;6345109;28;20059;-71
2022/04/26 18:10:53;;;;;;;23.40;9.43;;;19.90;46.80;;;;;;6345426;28;20035;-71
2022/04/26 18:13:53;;;;;;;21.73;8.10;;;19.90;46.80;;;;;;6326794;28;20027;-70
2022/04/26 18:16:54;;;;;;;24.40;9.75;;;19.90;46.90;;;;;;6344625;28;20034;-70
2022/04/26 18:19:55;;;;;;;27.95;10.30;;;19.90;47.00;;;;;;6343221;28;20082;-71
2022/04/26 18:22:56;;;;;;;23.08;9.77;;;19.90;46.90;;;;;;6343562;28;20058;-71
2022/04/26 18:26:12;;;;;;;25.80;10.13;;;19.90;47.10;;;;;;6344574;28;20027;-70
2022/04/26 18:29:19;;;;;;;24.98;10.43;;;19.90;47.00;;;;;;6341214;28;20023;-70
2022/04/26 18:32:20;;;;;;;29.10;10.73;;;19.90;47.10;;;;;;6301497;28;20069;-70
2022/04/26 18:35:21;;;;;;;22.95;9.48;;;19.90;47.00;;;;;;6319690;28;20501;-71
2022/04/26 18:38:21;;;;;;;27.25;10.32;;;19.90;47.10;;;;;;6318794;28;20043;-70
2022/04/26 18:41:25;;;;;;;26.90;11.00;;;19.90;47.10;;;;;;6343686;28;20036;-70
2022/04/26 18:44:25;;;;;;;27.02;11.00;;;19.90;47.20;;;;;;6325794;28;20023;-70
2022/04/26 18:47:26;;;;;;;27.27;11.52;;;19.90;47.20;;;;;;6343606;28;20035;-69
2022/04/26 18:50:27;;;;;;;30.50;12.68;;;19.90;47.10;;;;;;6325192;28;20034;-69
2022/04/26 18:53:28;;;;;;;33.60;13.38;;;19.90;47.10;;;;;;6343104;28;20036;-69
2022/04/26 18:56:29;;;;;;;34.22;13.50;;;19.90;47.00;;;;;;6324735;28;20027;-69
2022/04/26 18:59:29;;;;;;;30.42;11.90;;;19.80;46.40;;;;;;6323114;28;20020;-71
2022/04/26 19:02:30;;;;;;;33.08;12.48;;;19.80;45.90;;;;;;6324876;28;20856;-70
2022/04/26 19:05:31;;;;;;;33.95;12.43;;;19.90;45.80;;;;;;6324795;28;20020;-71
2022/04/26 19:08:32;;;;;;;27.42;10.05;;;19.80;45.00;;;;;;6343549;28;20089;-71
2022/04/26 19:14:52;;;;;;;19.70;9.38;;;19.80;44.90;;;;;;6343838;28;20028;-72
2022/04/26 19:18:00;;;;;;;28.67;9.73;;;19.80;44.90;;;;;;6342370;28;20030;-70
2022/04/26 19:21:01;;;;;;;21.15;8.50;;;19.90;45.20;;;;;;6342270;28;20020;-70
2022/04/26 19:24:02;;;;;;;33.00;9.73;;;19.90;45.90;;;;;;6342947;28;20035;-70
2022/04/26 19:27:03;;;;;;;20.33;8.27;;;19.90;45.40;;;;;;6344396;28;20031;-70
2022/04/26 19:30:04;;;;;;;22.00;8.45;;;19.90;45.50;;;;;;6334682;28;20028;-70
2022/04/26 19:33:05;;;;;;;17.15;7.65;;;19.90;45.70;;;;;;6300751;28;20553;-73
2022/04/26 19:36:07;;;;;;;20.83;7.72;;;19.90;45.80;;;;;;6318962;28;20033;-70
2022/04/26 19:39:07;;;;;;;22.83;9.00;;;19.90;45.80;;;;;;6339119;28;20040;-70
2022/04/26 19:42:08;;;;;;;18.52;7.82;;;19.90;46.00;;;;;;6343226;28;20687;-70
2022/04/26 19:45:09;;;;;;;22.48;8.20;;;19.80;46.10;;;;;;6325681;28;20049;-70
2022/04/26 19:48:12;;;;;;;17.17;7.22;;;19.90;46.10;;;;;;6325626;28;20500;-70
2022/04/26 19:51:25;;;;;;;18.20;8.07;;;19.90;46.20;;;;;;6343905;28;20026;-70
2022/04/26 19:54:26;;;;;;;17.05;7.75;;;19.90;46.20;;;;;;6344042;28;20019;-70
2022/04/26 19:57:27;;;;;;;19.80;7.50;;;19.90;46.90;;;;;;6343895;28;20065;-70
2022/04/26 20:00:28;;;;;;;17.65;7.07;;;19.90;46.30;;;;;;6343786;28;20081;-71
2022/04/26 20:03:29;;;;;;;16.60;7.20;;;19.90;46.30;;;;;;6343774;28;20023;-70
2022/04/26 20:06:29;;;;;;;16.92;7.03;;;19.90;46.30;;;;;;6325863;28;20024;-71
2022/04/26 20:09:30;;;;;;;18.60;6.75;;;19.80;46.30;;;;;;6344441;28;20031;-70
2022/04/26 20:12:31;;;;;;;14.10;6.88;;;19.80;46.30;;;;;;6344109;28;20102;-70
2022/04/26 20:15:32;;;;;;;14.23;6.55;;;19.90;46.40;;;;;;6343460;28;20069;-71
2022/04/26 20:18:33;;;;;;;15.32;6.55;;;19.80;46.40;;;;;;6343261;28;20080;-70
2022/04/26 20:21:33;;;;;;;15.68;7.20;;;19.80;46.50;;;;;;6324960;28;20064;-70